createdAt,value
2023-02-16T00:06:17.546Z,28.60
2023-02-16T00:11:45.893Z,25.55
2023-02-16T00:16:52.136Z,27.05
2023-02-16T00:21:58.432Z,24.85
2023-02-16T00:27:03.207Z,26.55
2023-02-16T00:32:13.800Z,26.10
2023-02-16T00:37:18.436Z,28.38
2023-02-16T00:42:29.192Z,26.85
2023-02-16T00:47:38.067Z,26.48
2023-02-16T00:52:43.619Z,26.95
2023-02-16T00:57:52.432Z,26.73
2023-02-16T01:03:00.692Z,25.88
2023-02-16T01:08:27.843Z,23.92
2023-02-16T01:13:36.177Z,23.85
2023-02-16T01:18:42.292Z,24.13
2023-02-16T01:28:51.198Z,23.30
2023-02-16T01:33:57.290Z,24.55
2023-02-16T01:44:10.820Z,23.85
2023-02-16T01:49:17.424Z,24.10
2023-02-16T01:54:32.636Z,23.10
2023-02-16T01:59:43.213Z,24.38
2023-02-16T02:05:11.892Z,23.33
2023-02-16T02:10:23.723Z,24.80
2023-02-16T02:15:32.548Z,23.33
2023-02-16T02:21:08.283Z,23.77
2023-02-16T02:26:36.008Z,23.60
2023-02-16T02:31:50.129Z,22.40
2023-02-16T02:37:05.558Z,23.50
2023-02-16T02:42:18.963Z,23.58
2023-02-16T02:47:39.715Z,22.40
2023-02-16T02:52:45.540Z,22.65
2023-02-16T02:58:09.403Z,23.27
2023-02-16T03:03:20.254Z,23.98
2023-02-16T03:08:27.397Z,23.60
2023-02-16T03:13:36.174Z,23.90
2023-02-16T03:19:00.995Z,24.25
2023-02-16T03:24:27.042Z,23.38
2023-02-16T03:29:34.844Z,22.75
2023-02-16T03:34:39.268Z,22.85
2023-02-16T03:39:58.059Z,23.20
2023-02-16T03:45:03.994Z,22.40
2023-02-16T03:50:09.622Z,22.48
2023-02-16T03:55:14.260Z,22.88
2023-02-16T04:00:20.704Z,23.42
2023-02-16T04:05:25.235Z,22.40
2023-02-16T04:10:30.082Z,25.17
2023-02-16T04:15:35.755Z,25.67
2023-02-16T04:20:40.083Z,25.17
2023-02-16T04:25:44.481Z,25.80
2023-02-16T04:30:50.311Z,25.52
2023-02-16T04:35:55.154Z,26.98
2023-02-16T04:40:59.560Z,25.20
2023-02-16T04:46:05.583Z,25.48
2023-02-16T04:56:14.482Z,25.88
2023-02-16T05:01:25.248Z,28.52
2023-02-16T05:06:29.681Z,28.52
2023-02-16T05:11:51.527Z,26.73
2023-02-16T05:16:57.264Z,31.23
2023-02-16T05:22:01.791Z,31.67
2023-02-16T05:27:07.405Z,32.85
2023-02-16T05:32:13.328Z,38.78
2023-02-16T05:37:19.611Z,30.48
2023-02-16T05:42:23.966Z,37.67
2023-02-16T05:47:29.774Z,42.80
2023-02-16T05:57:38.417Z,33.92
2023-02-16T06:02:44.366Z,33.20
2023-02-16T06:07:48.925Z,35.20
2023-02-16T06:12:53.540Z,32.47
2023-02-16T06:17:59.372Z,33.55
2023-02-16T06:23:03.897Z,35.47
2023-02-16T06:28:08.245Z,50.58
2023-02-16T06:33:16.138Z,40.42
2023-02-16T06:38:23.958Z,39.47
2023-02-16T06:43:31.633Z,37.13
2023-02-16T06:48:40.328Z,35.67
2023-02-16T06:53:47.820Z,34.53
2023-02-16T06:58:56.000Z,32.13
2023-02-16T07:04:05.781Z,32.42
2023-02-16T07:09:13.624Z,31.83
2023-02-16T07:14:19.352Z,29.67
2023-02-16T07:19:25.557Z,31.42
2023-02-16T07:24:30.680Z,28.52
2023-02-16T07:29:35.431Z,28.33
2023-02-16T07:34:43.147Z,27.92
2023-02-16T07:39:50.699Z,30.58
2023-02-16T07:44:55.354Z,29.40
2023-02-16T07:50:01.450Z,28.70
2023-02-16T07:55:06.551Z,28.08
2023-02-16T08:00:12.278Z,26.60
2023-02-16T08:05:18.697Z,25.92
2023-02-16T08:10:23.269Z,29.50
2023-02-16T08:15:27.803Z,29.35
2023-02-16T08:20:51.186Z,28.58
2023-02-16T08:25:59.366Z,28.88
2023-02-16T08:31:05.014Z,27.77
2023-02-16T08:36:18.510Z,27.67
2023-02-16T08:41:26.965Z,29.45
2023-02-16T08:46:33.332Z,30.33
2023-02-16T08:51:43.884Z,28.00
2023-02-16T09:00:49.864Z,29.90
2023-02-16T09:05:55.074Z,30.40
2023-02-16T09:11:03.388Z,27.05
2023-02-16T09:16:11.616Z,26.20
2023-02-16T09:21:19.780Z,27.13
2023-02-16T09:26:26.903Z,27.38
2023-02-16T09:31:39.789Z,26.17
2023-02-16T09:36:45.879Z,27.33
2023-02-16T09:42:03.027Z,28.57
2023-02-16T09:47:17.859Z,27.67
2023-02-16T09:52:31.428Z,28.92
2023-02-16T09:57:57.171Z,28.42
2023-02-16T10:03:15.080Z,28.30
2023-02-16T10:08:27.656Z,28.70
2023-02-16T10:13:42.062Z,28.05
2023-02-16T10:18:51.996Z,27.85
2023-02-16T10:23:59.888Z,27.92
2023-02-16T10:29:08.819Z,27.83
2023-02-16T10:34:23.403Z,29.05
2023-02-16T10:39:36.893Z,27.52
2023-02-16T10:44:45.445Z,24.75
2023-02-16T10:49:51.867Z,26.63
2023-02-16T10:54:56.447Z,26.92
2023-02-16T11:00:03.516Z,24.50
2023-02-16T11:05:32.397Z,26.33
2023-02-16T11:10:41.558Z,24.05
2023-02-16T11:15:54.656Z,25.80
2023-02-16T11:21:01.208Z,23.63
2023-02-16T11:26:08.971Z,24.08
2023-02-16T11:31:19.890Z,26.13
2023-02-16T11:36:32.576Z,26.17
2023-02-16T11:41:37.627Z,23.65
2023-02-16T11:46:42.529Z,24.80
2023-02-16T11:51:48.587Z,25.60
2023-02-16T12:02:33.484Z,24.92
2023-02-16T12:07:48.309Z,25.90
2023-02-16T12:13:03.067Z,24.30
2023-02-16T12:18:25.686Z,27.88
2023-02-16T12:23:43.087Z,29.55
2023-02-16T12:28:59.534Z,27.25
2023-02-16T12:34:16.260Z,27.40
2023-02-16T12:39:31.254Z,28.50
2023-02-16T12:44:42.797Z,28.17
2023-02-16T12:49:54.712Z,27.98
2023-02-16T12:55:12.529Z,28.48
2023-02-16T13:00:22.308Z,30.08
2023-02-16T13:05:32.058Z,27.13
2023-02-16T13:10:48.760Z,28.23
2023-02-16T13:16:00.533Z,29.45
2023-02-16T13:21:12.171Z,28.27
2023-02-16T13:26:43.142Z,28.13
2023-02-16T13:32:00.952Z,29.00
2023-02-16T13:37:22.389Z,29.00
2023-02-16T13:42:47.164Z,29.10
2023-02-16T13:47:54.613Z,30.08
2023-02-16T13:53:10.253Z,28.00
2023-02-16T13:58:34.429Z,29.00
2023-02-16T14:03:40.170Z,28.95
2023-02-16T14:09:04.617Z,30.75
2023-02-16T14:14:31.350Z,32.70
2023-02-16T14:19:38.748Z,31.23
2023-02-16T14:24:44.506Z,31.17
2023-02-16T14:30:00.776Z,32.67
2023-02-16T14:35:08.998Z,33.17
2023-02-16T14:40:21.563Z,34.22
2023-02-16T14:45:56.843Z,33.58
2023-02-16T14:51:36.112Z,32.72
2023-02-16T14:56:44.044Z,34.40
2023-02-16T15:01:50.621Z,34.40
2023-02-16T15:06:56.696Z,34.38
2023-02-16T15:17:34.508Z,33.78
2023-02-16T15:22:44.453Z,34.58
2023-02-16T15:28:00.342Z,35.42
2023-02-16T15:33:08.588Z,35.33
2023-02-16T15:38:22.189Z,37.45
2023-02-16T15:43:32.360Z,37.67
2023-02-16T15:48:39.160Z,34.30
2023-02-16T15:53:49.004Z,36.08
2023-02-16T15:58:54.213Z,38.15
2023-02-16T16:04:01.063Z,38.87
2023-02-16T16:09:08.714Z,54.05
2023-02-16T16:14:14.789Z,59.65
2023-02-16T16:19:23.023Z,51.53
2023-02-16T16:24:39.126Z,41.03
2023-02-16T16:29:49.477Z,55.58
2023-02-16T16:34:55.763Z,41.95
2023-02-16T16:40:04.478Z,43.17
2023-02-16T16:45:36.242Z,55.42
2023-02-16T16:50:42.619Z,48.85
2023-02-16T16:55:46.917Z,44.35
2023-02-16T17:00:51.281Z,53.55
2023-02-16T17:05:57.076Z,45.03
2023-02-16T17:16:12.544Z,46.45
2023-02-16T17:21:19.403Z,39.25
2023-02-16T17:26:24.487Z,37.83
2023-02-16T17:31:29.386Z,42.50
2023-02-16T17:36:36.112Z,38.17
2023-02-16T17:41:40.629Z,42.50
2023-02-16T17:46:46.276Z,42.72
2023-02-16T17:51:52.167Z,41.72
2023-02-16T17:56:56.800Z,41.33
2023-02-16T18:02:01.968Z,39.65
2023-02-16T18:07:07.944Z,41.30
2023-02-16T18:12:12.867Z,40.72
2023-02-16T18:17:18.065Z,40.72
2023-02-16T18:22:23.859Z,39.22
2023-02-16T18:32:35.531Z,40.67
2023-02-16T18:37:41.983Z,38.78
2023-02-16T18:42:46.762Z,40.17
2023-02-16T18:47:51.351Z,42.15
2023-02-16T18:52:57.546Z,41.22
2023-02-16T18:58:03.005Z,41.35
2023-02-16T19:03:07.552Z,39.70
2023-02-16T19:08:13.731Z,42.72
2023-02-16T19:13:18.378Z,45.88
2023-02-16T19:18:22.999Z,42.10
2023-02-16T19:23:29.039Z,42.47
2023-02-16T19:33:37.817Z,42.55
2023-02-16T19:38:44.625Z,45.25
2023-02-16T19:43:49.321Z,42.17
2023-02-16T19:48:55.978Z,43.92
2023-02-16T19:54:03.382Z,41.65
2023-02-16T19:59:07.986Z,40.05
2023-02-16T20:04:13.072Z,40.58
2023-02-16T20:09:19.250Z,40.65
2023-02-16T20:14:23.730Z,40.55
2023-02-16T20:19:28.312Z,40.22
2023-02-16T20:24:34.454Z,41.65
2023-02-16T20:29:39.449Z,40.20
2023-02-16T20:34:47.343Z,44.15
2023-02-16T20:39:53.281Z,40.72
2023-02-16T20:44:58.887Z,40.40
2023-02-16T20:50:03.337Z,40.50
2023-02-16T20:55:10.718Z,41.20
2023-02-16T21:00:21.692Z,39.83
2023-02-16T21:05:26.332Z,40.17
2023-02-16T21:10:37.197Z,40.28
2023-02-16T21:15:41.555Z,41.58
2023-02-16T21:20:46.708Z,40.30
2023-02-16T21:25:52.811Z,38.50
2023-02-16T21:36:06.581Z,40.58
2023-02-16T21:41:29.133Z,40.38
2023-02-16T21:46:36.623Z,41.33
2023-02-16T21:51:43.206Z,43.28
2023-02-16T21:56:51.633Z,40.75
2023-02-16T22:01:56.018Z,40.70
2023-02-16T22:07:00.472Z,43.63
2023-02-16T22:12:07.034Z,42.00
2023-02-16T22:17:11.661Z,38.38
2023-02-16T22:22:16.072Z,42.20
2023-02-16T22:27:22.006Z,40.33
2023-02-16T22:32:26.928Z,40.33
2023-02-16T22:37:33.113Z,37.75
2023-02-16T22:42:39.182Z,39.00
2023-02-16T22:47:43.763Z,39.80
2023-02-16T22:52:48.379Z,37.63
2023-02-16T22:57:54.391Z,38.97
2023-02-16T23:02:58.922Z,40.20
2023-02-16T23:08:03.743Z,39.90
2023-02-16T23:13:10.596Z,40.27
2023-02-16T23:18:15.023Z,36.60
2023-02-16T23:23:19.484Z,37.75
2023-02-16T23:28:25.573Z,37.83
2023-02-16T23:33:30.594Z,36.65
2023-02-16T23:38:35.227Z,37.60
2023-02-16T23:43:46.176Z,37.53
2023-02-16T23:48:51.013Z,34.33
2023-02-16T23:53:58.519Z,37.15
2023-02-16T23:59:04.628Z,35.97
